Time;durP1;ratioP1;P1;durP2;ratioP2;P2;SDS_P1;SDS_P2;PMS_P1;PMS_P2;Temp;Humidity;BMP_temperature;BMP_pressure;BME280_temperature;BME280_humidity;BME280_pressure;Samples;Min_cycle;Max_cycle;Signal;HPM_P1;HPM_P2
2023/12/14 00:01:29;;;;;;;15.57;8.73;;;;;;;;;;4976791;28;20207;-67
2023/12/14 00:03:54;;;;;;;15.13;8.97;;;;;;;;;;4965366;28;21187;-67
2023/12/14 00:06:19;;;;;;;17.30;8.97;;;;;;;;;;4966816;28;20196;-66
2023/12/14 00:08:45;;;;;;;17.13;8.63;;;;;;;;;;4969460;28;21543;-66
2023/12/14 00:11:10;;;;;;;17.50;10.03;;;;;;;;;;4977523;28;20172;-66
2023/12/14 00:13:36;;;;;;;16.07;8.07;;;;;;;;;;4980880;28;20559;-67
2023/12/14 00:16:01;;;;;;;16.33;8.97;;;;;;;;;;4983485;28;20563;-67
2023/12/14 00:18:26;;;;;;;12.47;7.93;;;;;;;;;;4984872;28;20273;-67
2023/12/14 00:20:52;;;;;;;14.20;8.17;;;;;;;;;;4984740;28;20254;-68
2023/12/14 00:23:18;;;;;;;16.40;8.93;;;;;;;;;;4982788;28;20286;-68
2023/12/14 00:25:43;;;;;;;16.90;9.00;;;;;;;;;;4981705;28;20194;-67
2023/12/14 00:28:08;;;;;;;13.90;7.97;;;;;;;;;;4984792;28;20176;-67
2023/12/14 00:30:33;;;;;;;12.60;7.80;;;;;;;;;;4979428;28;20618;-67
2023/12/14 00:32:58;;;;;;;10.93;7.37;;;;;;;;;;4982237;28;20254;-67
2023/12/14 00:35:23;;;;;;;13.97;8.03;;;;;;;;;;4978822;28;20184;-68
2023/12/14 00:37:49;;;;;;;18.43;9.50;;;;;;;;;;4986255;28;20262;-68
2023/12/14 00:40:14;;;;;;;13.33;7.90;;;;;;;;;;4982330;28;20195;-66
2023/12/14 00:42:39;;;;;;;14.03;8.10;;;;;;;;;;4983162;28;20207;-67
2023/12/14 00:45:04;;;;;;;12.63;7.93;;;;;;;;;;4983517;28;20715;-66
2023/12/14 00:47:30;;;;;;;11.90;8.03;;;;;;;;;;4979562;28;20242;-67
2023/12/14 00:49:55;;;;;;;13.00;7.67;;;;;;;;;;4982771;28;20195;-66
2023/12/14 00:52:20;;;;;;;11.77;7.53;;;;;;;;;;4979160;28;20206;-66
2023/12/14 00:54:45;;;;;;;12.80;7.43;;;;;;;;;;4986582;28;20188;-66
2023/12/14 00:57:11;;;;;;;12.20;7.77;;;;;;;;;;4987514;28;20237;-67
2023/12/14 00:59:36;;;;;;;11.40;7.20;;;;;;;;;;4988466;28;20272;-68
2023/12/14 01:02:01;;;;;;;11.73;7.97;;;;;;;;;;4984357;28;20231;-67
2023/12/14 01:04:26;;;;;;;13.90;7.90;;;;;;;;;;4988209;28;20180;-67
2023/12/14 01:06:51;;;;;;;12.97;7.70;;;;;;;;;;4990821;28;20664;-68
2023/12/14 01:09:17;;;;;;;12.73;8.10;;;;;;;;;;4981829;28;20184;-67
2023/12/14 01:11:42;;;;;;;12.53;7.27;;;;;;;;;;4985933;28;20678;-67
2023/12/14 01:14:07;;;;;;;12.73;8.60;;;;;;;;;;4984167;28;20583;-67
2023/12/14 01:16:32;;;;;;;13.50;7.77;;;;;;;;;;4989710;28;20188;-68
2023/12/14 01:18:58;;;;;;;12.90;8.40;;;;;;;;;;4987716;28;20203;-68
2023/12/14 01:21:23;;;;;;;11.37;7.20;;;;;;;;;;4990342;28;20196;-69
2023/12/14 01:23:49;;;;;;;11.20;7.77;;;;;;;;;;4989485;28;20213;-68
2023/12/14 01:26:14;;;;;;;12.73;8.07;;;;;;;;;;4986730;28;20194;-67
2023/12/14 01:28:39;;;;;;;14.40;7.17;;;;;;;;;;4990139;28;20242;-68
2023/12/14 01:31:04;;;;;;;12.00;7.70;;;;;;;;;;4987130;28;20185;-68
2023/12/14 01:33:30;;;;;;;11.80;7.77;;;;;;;;;;4989220;28;20569;-68
2023/12/14 01:35:55;;;;;;;11.80;7.90;;;;;;;;;;4988140;28;20183;-68
2023/12/14 01:38:20;;;;;;;11.40;7.33;;;;;;;;;;4986489;28;20254;-67
2023/12/14 01:40:45;;;;;;;13.60;8.67;;;;;;;;;;4989787;28;20585;-67
2023/12/14 01:43:10;;;;;;;13.40;8.53;;;;;;;;;;4990694;28;20215;-66
2023/12/14 01:45:36;;;;;;;13.73;7.93;;;;;;;;;;4991090;28;20179;-67
2023/12/14 01:48:01;;;;;;;13.13;7.67;;;;;;;;;;4991042;28;20180;-65
2023/12/14 01:50:27;;;;;;;13.87;8.80;;;;;;;;;;4991505;28;20531;-67
2023/12/14 01:52:52;;;;;;;11.57;8.13;;;;;;;;;;4990422;28;20211;-67
2023/12/14 01:55:17;;;;;;;13.77;7.97;;;;;;;;;;4990147;28;20190;-67
2023/12/14 01:57:42;;;;;;;13.47;8.60;;;;;;;;;;4989141;28;20214;-68
2023/12/14 02:00:13;;;;;;;13.47;7.83;;;;;;;;;;4989144;28;20204;-67
2023/12/14 02:02:40;;;;;;;13.80;8.57;;;;;;;;;;4989751;28;20265;-69
2023/12/14 02:05:05;;;;;;;12.43;7.67;;;;;;;;;;4989509;28;20180;-68
2023/12/14 02:07:30;;;;;;;16.17;8.83;;;;;;;;;;4987918;28;20542;-68
2023/12/14 02:09:55;;;;;;;14.87;8.73;;;;;;;;;;4981891;28;20237;-68
2023/12/14 02:12:20;;;;;;;14.83;8.43;;;;;;;;;;4985900;28;20236;-68
2023/12/14 02:14:48;;;;;;;15.77;8.17;;;;;;;;;;4991489;28;20179;-68
2023/12/14 02:17:13;;;;;;;13.83;7.57;;;;;;;;;;4991016;28;20187;-68
2023/12/14 02:19:38;;;;;;;16.07;8.63;;;;;;;;;;4989838;28;20176;-67
2023/12/14 02:22:03;;;;;;;13.87;8.17;;;;;;;;;;4989081;28;20266;-68
2023/12/14 02:24:29;;;;;;;13.00;7.80;;;;;;;;;;4989746;28;20555;-68
2023/12/14 02:26:54;;;;;;;11.03;7.27;;;;;;;;;;4991900;28;20295;-67
2023/12/14 02:29:19;;;;;;;12.33;8.27;;;;;;;;;;4984701;28;20191;-68
2023/12/14 02:31:46;;;;;;;14.77;8.67;;;;;;;;;;4986530;28;20262;-68
2023/12/14 02:34:11;;;;;;;13.90;8.63;;;;;;;;;;4989095;28;20568;-68
2023/12/14 02:36:36;;;;;;;16.30;8.93;;;;;;;;;;4992047;28;20184;-67
2023/12/14 02:39:02;;;;;;;13.10;8.50;;;;;;;;;;4992422;28;20214;-67
2023/12/14 02:41:27;;;;;;;14.87;8.10;;;;;;;;;;4991143;28;20741;-67
2023/12/14 02:43:52;;;;;;;14.03;8.73;;;;;;;;;;4992500;28;20207;-67
2023/12/14 02:46:18;;;;;;;16.63;9.53;;;;;;;;;;4991663;28;20714;-68
2023/12/14 02:48:43;;;;;;;16.37;9.33;;;;;;;;;;4979483;28;20223;-68
2023/12/14 02:51:12;;;;;;;14.27;7.80;;;;;;;;;;4989598;28;20179;-67
2023/12/14 02:53:37;;;;;;;17.13;9.50;;;;;;;;;;4993265;28;20211;-67
2023/12/14 02:56:02;;;;;;;17.10;9.47;;;;;;;;;;4992137;28;20194;-66
2023/12/14 02:58:27;;;;;;;13.20;7.97;;;;;;;;;;4986531;28;20294;-67
2023/12/14 03:00:53;;;;;;;14.83;9.37;;;;;;;;;;4988682;28;20168;-67
2023/12/14 03:03:18;;;;;;;19.00;9.23;;;;;;;;;;4990177;28;20310;-70
2023/12/14 03:05:43;;;;;;;14.47;8.17;;;;;;;;;;4989896;28;20230;-68
2023/12/14 03:08:08;;;;;;;16.90;8.33;;;;;;;;;;4982967;28;20184;-68
2023/12/14 03:10:33;;;;;;;18.03;8.77;;;;;;;;;;4990983;28;20183;-67
2023/12/14 03:12:59;;;;;;;15.97;9.07;;;;;;;;;;4990526;28;20210;-67
2023/12/14 03:15:24;;;;;;;14.87;8.97;;;;;;;;;;4987062;28;20787;-67
2023/12/14 03:17:49;;;;;;;20.60;9.10;;;;;;;;;;4993499;28;20215;-67
2023/12/14 03:20:14;;;;;;;17.00;9.07;;;;;;;;;;4991269;28;20559;-67
2023/12/14 03:22:40;;;;;;;16.07;10.23;;;;;;;;;;4984824;28;20242;-67
2023/12/14 03:25:05;;;;;;;20.83;9.83;;;;;;;;;;4991838;28;20266;-68
2023/12/14 03:27:31;;;;;;;16.30;9.80;;;;;;;;;;4981670;28;20317;-68
2023/12/14 03:29:56;;;;;;;16.10;8.33;;;;;;;;;;4985615;28;20199;-66
2023/12/14 03:32:21;;;;;;;17.90;8.23;;;;;;;;;;4983939;28;20207;-67
2023/12/14 03:34:46;;;;;;;17.13;9.07;;;;;;;;;;4984549;28;20190;-66
2023/12/14 03:37:11;;;;;;;18.03;9.07;;;;;;;;;;4984416;28;20195;-67
2023/12/14 03:39:36;;;;;;;16.87;9.00;;;;;;;;;;4988853;28;20305;-67
2023/12/14 03:42:02;;;;;;;21.13;9.23;;;;;;;;;;4989969;28;20204;-67
2023/12/14 03:44:27;;;;;;;19.33;9.80;;;;;;;;;;4990259;28;20824;-68
2023/12/14 03:46:54;;;;;;;15.33;8.70;;;;;;;;;;4984478;28;20176;-68
2023/12/14 03:49:19;;;;;;;17.60;8.60;;;;;;;;;;4988043;28;20675;-67
2023/12/14 03:51:44;;;;;;;18.77;9.57;;;;;;;;;;4988628;28;20236;-68
2023/12/14 03:54:09;;;;;;;18.23;9.70;;;;;;;;;;4991285;28;20623;-68
2023/12/14 03:56:34;;;;;;;16.30;8.57;;;;;;;;;;4990244;28;20194;-68
2023/12/14 03:59:00;;;;;;;16.77;8.03;;;;;;;;;;4991202;28;20655;-68
2023/12/14 04:01:25;;;;;;;15.20;8.07;;;;;;;;;;4990384;28;20179;-68
2023/12/14 04:03:50;;;;;;;15.03;7.90;;;;;;;;;;4991130;28;20200;-67
2023/12/14 04:06:15;;;;;;;16.60;8.60;;;;;;;;;;4980368;28;20180;-68
2023/12/14 04:08:41;;;;;;;16.90;8.70;;;;;;;;;;4987815;28;20239;-68
2023/12/14 04:11:06;;;;;;;15.70;7.90;;;;;;;;;;4992555;28;20192;-67
2023/12/14 04:13:32;;;;;;;14.43;7.97;;;;;;;;;;4990546;28;20583;-67
2023/12/14 04:15:57;;;;;;;14.57;8.63;;;;;;;;;;4991530;28;20198;-67
2023/12/14 04:18:22;;;;;;;11.07;6.63;;;;;;;;;;4989764;28;20302;-66
2023/12/14 04:20:48;;;;;;;12.37;6.33;;;;;;;;;;4991775;28;20176;-66
2023/12/14 04:23:13;;;;;;;11.40;6.70;;;;;;;;;;4990533;28;20204;-67
2023/12/14 04:25:38;;;;;;;12.17;6.97;;;;;;;;;;4987099;28;20230;-67
2023/12/14 04:28:03;;;;;;;11.40;6.40;;;;;;;;;;4990963;28;20295;-67
2023/12/14 04:30:28;;;;;;;13.87;6.13;;;;;;;;;;4990377;28;20270;-67
2023/12/14 04:32:54;;;;;;;8.93;5.87;;;;;;;;;;4989904;28;20374;-67
2023/12/14 04:35:21;;;;;;;8.33;5.17;;;;;;;;;;4989908;28;20199;-67
2023/12/14 04:37:47;;;;;;;9.83;5.57;;;;;;;;;;4992136;28;20725;-67
2023/12/14 04:40:12;;;;;;;14.47;5.67;;;;;;;;;;4990469;28;20184;-67
2023/12/14 04:42:37;;;;;;;7.87;4.63;;;;;;;;;;4989791;28;20214;-67
2023/12/14 04:45:03;;;;;;;11.03;5.43;;;;;;;;;;4982718;28;20521;-65
2023/12/14 04:47:28;;;;;;;14.83;5.67;;;;;;;;;;4988769;28;20176;-67
2023/12/14 04:49:53;;;;;;;11.30;5.97;;;;;;;;;;4990272;28;20172;-68
2023/12/14 04:52:19;;;;;;;10.03;5.07;;;;;;;;;;4991489;28;20702;-66
2023/12/14 04:54:44;;;;;;;9.37;6.03;;;;;;;;;;4990107;28;20263;-66
2023/12/14 04:57:09;;;;;;;12.00;4.60;;;;;;;;;;4992190;28;20176;-67
2023/12/14 04:59:34;;;;;;;10.40;5.37;;;;;;;;;;4987630;28;20210;-66
2023/12/14 05:02:00;;;;;;;7.93;4.63;;;;;;;;;;4990914;28;20200;-67
2023/12/14 05:04:25;;;;;;;8.17;5.20;;;;;;;;;;4983964;28;20191;-67
2023/12/14 05:06:50;;;;;;;6.97;4.70;;;;;;;;;;4988960;28;20226;-67
2023/12/14 05:09:15;;;;;;;8.83;5.10;;;;;;;;;;4988466;28;20666;-65
2023/12/14 05:11:40;;;;;;;10.23;5.93;;;;;;;;;;4982785;28;20172;-69
2023/12/14 05:14:06;;;;;;;9.10;5.23;;;;;;;;;;4987353;28;20238;-68
2023/12/14 05:16:31;;;;;;;8.67;5.10;;;;;;;;;;4990903;28;20239;-67
2023/12/14 05:18:59;;;;;;;11.10;6.07;;;;;;;;;;4990445;28;20216;-67
2023/12/14 05:21:24;;;;;;;9.40;6.17;;;;;;;;;;4984750;28;20227;-66
2023/12/14 05:23:49;;;;;;;9.77;6.07;;;;;;;;;;4986972;28;20428;-67
2023/12/14 05:26:15;;;;;;;10.50;5.93;;;;;;;;;;4990156;28;20214;-68
2023/12/14 05:28:40;;;;;;;13.33;6.67;;;;;;;;;;4989268;28;20236;-68
2023/12/14 05:31:05;;;;;;;10.90;5.63;;;;;;;;;;4986977;28;20189;-68
2023/12/14 05:33:33;;;;;;;8.37;5.53;;;;;;;;;;4990925;28;20219;-67
2023/12/14 05:35:59;;;;;;;10.00;6.07;;;;;;;;;;4988957;28;20206;-67
2023/12/14 05:38:24;;;;;;;10.10;6.47;;;;;;;;;;4987015;28;20204;-67
2023/12/14 05:40:49;;;;;;;10.00;6.57;;;;;;;;;;4985322;28;20168;-67
2023/12/14 05:43:14;;;;;;;12.83;6.33;;;;;;;;;;4986141;28;20261;-67
2023/12/14 05:45:40;;;;;;;11.43;7.07;;;;;;;;;;4991429;28;20183;-67
2023/12/14 05:48:05;;;;;;;15.00;6.30;;;;;;;;;;4990098;28;20180;-67
2023/12/14 05:50:30;;;;;;;11.67;6.97;;;;;;;;;;4988930;28;20218;-67
2023/12/14 05:52:56;;;;;;;9.13;5.97;;;;;;;;;;4986320;28;20307;-68
2023/12/14 05:55:21;;;;;;;9.57;6.07;;;;;;;;;;4985042;28;20184;-68
2023/12/14 05:57:49;;;;;;;9.53;5.77;;;;;;;;;;4989123;28;20634;-67
2023/12/14 06:00:15;;;;;;;10.27;6.43;;;;;;;;;;4977587;28;20235;-67
2023/12/14 06:02:41;;;;;;;10.43;6.73;;;;;;;;;;4991836;28;20222;-68
2023/12/14 06:05:07;;;;;;;9.77;6.67;;;;;;;;;;4992354;28;20194;-68
2023/12/14 06:07:32;;;;;;;8.40;5.97;;;;;;;;;;4995814;28;20650;-67
2023/12/14 06:09:57;;;;;;;11.07;6.27;;;;;;;;;;4997186;28;20172;-68
2023/12/14 06:12:22;;;;;;;12.03;6.10;;;;;;;;;;4996221;28;20199;-68
2023/12/14 06:14:48;;;;;;;7.70;5.90;;;;;;;;;;4995452;28;20210;-68
2023/12/14 06:17:13;;;;;;;7.50;5.27;;;;;;;;;;4989126;28;20254;-67
2023/12/14 06:19:38;;;;;;;10.40;5.60;;;;;;;;;;4986736;28;20918;-67
2023/12/14 06:22:03;;;;;;;7.73;5.80;;;;;;;;;;4991272;28;20278;-67
2023/12/14 06:24:29;;;;;;;7.43;4.53;;;;;;;;;;4988517;28;20650;-67
2023/12/14 06:26:54;;;;;;;6.50;3.93;;;;;;;;;;4989424;28;20187;-68
2023/12/14 06:29:19;;;;;;;6.60;5.03;;;;;;;;;;4989432;28;20188;-67
2023/12/14 06:31:45;;;;;;;5.77;4.27;;;;;;;;;;4987606;28;20242;-66
2023/12/14 06:34:10;;;;;;;8.83;5.43;;;;;;;;;;4992241;28;20215;-68
2023/12/14 06:36:35;;;;;;;8.23;6.03;;;;;;;;;;4991871;28;20280;-68
2023/12/14 06:39:01;;;;;;;8.93;5.77;;;;;;;;;;4991192;28;20206;-68
2023/12/14 06:41:27;;;;;;;9.60;5.70;;;;;;;;;;5003473;28;20646;-68
2023/12/14 06:43:52;;;;;;;13.27;6.10;;;;;;;;;;4997146;28;20306;-70
2023/12/14 06:46:18;;;;;;;8.50;5.87;;;;;;;;;;4988979;28;20291;-69
2023/12/14 06:48:43;;;;;;;10.67;5.63;;;;;;;;;;4992402;28;20187;-71
2023/12/14 06:51:08;;;;;;;8.37;4.87;;;;;;;;;;4992322;28;20204;-72
2023/12/14 06:53:39;;;;;;;6.57;5.10;;;;;;;;;;4993616;28;20928;-70
2023/12/14 06:56:04;;;;;;;6.27;5.10;;;;;;;;;;4987922;28;20230;-69
2023/12/14 06:58:30;;;;;;;9.03;5.57;;;;;;;;;;4986634;28;20212;-69
2023/12/14 07:00:55;;;;;;;10.97;5.90;;;;;;;;;;4987206;28;20674;-69
2023/12/14 07:03:20;;;;;;;10.03;5.40;;;;;;;;;;4990646;28;20383;-69
2023/12/14 07:05:45;;;;;;;11.23;5.93;;;;;;;;;;4995301;28;20179;-68
2023/12/14 07:08:10;;;;;;;8.77;5.47;;;;;;;;;;4997806;28;20665;-68
2023/12/14 07:10:36;;;;;;;9.83;5.17;;;;;;;;;;4990342;28;20218;-68
2023/12/14 07:13:01;;;;;;;10.10;5.83;;;;;;;;;;4983821;28;20207;-69
2023/12/14 07:15:26;;;;;;;9.37;5.87;;;;;;;;;;4988544;28;20246;-70
2023/12/14 07:17:51;;;;;;;7.80;5.40;;;;;;;;;;4994889;28;20687;-69
2023/12/14 07:20:16;;;;;;;8.70;5.50;;;;;;;;;;4993391;28;20187;-69
2023/12/14 07:22:42;;;;;;;9.17;5.70;;;;;;;;;;4994051;28;20213;-71
2023/12/14 07:25:08;;;;;;;8.60;5.67;;;;;;;;;;4990663;28;20266;-70
2023/12/14 07:27:33;;;;;;;8.77;5.27;;;;;;;;;;4990684;28;20171;-69
2023/12/14 07:29:58;;;;;;;9.10;5.17;;;;;;;;;;4980815;28;20194;-69
2023/12/14 07:32:23;;;;;;;7.37;4.80;;;;;;;;;;4989206;28;20256;-69
2023/12/14 07:34:48;;;;;;;8.80;5.30;;;;;;;;;;4992363;28;20168;-69
2023/12/14 07:37:14;;;;;;;7.33;5.50;;;;;;;;;;4992531;28;20227;-69
2023/12/14 07:39:39;;;;;;;6.97;4.90;;;;;;;;;;4992063;28;20709;-69
2023/12/14 07:42:05;;;;;;;8.63;5.10;;;;;;;;;;4991466;28;20223;-68
2023/12/14 07:44:30;;;;;;;8.13;4.63;;;;;;;;;;4988691;28;20180;-69
2023/12/14 07:46:56;;;;;;;10.07;5.23;;;;;;;;;;4990206;28;20561;-69
2023/12/14 07:49:23;;;;;;;8.83;5.73;;;;;;;;;;5005309;28;20191;-69
2023/12/14 07:51:48;;;;;;;9.80;6.27;;;;;;;;;;4992393;28;20539;-68
2023/12/14 07:54:13;;;;;;;9.70;5.00;;;;;;;;;;4993123;28;20187;-70
2023/12/14 07:56:38;;;;;;;9.20;5.60;;;;;;;;;;4992673;28;20570;-68
2023/12/14 07:59:07;;;;;;;7.10;4.27;;;;;;;;;;4992373;28;20246;-70
2023/12/14 08:01:32;;;;;;;9.27;5.20;;;;;;;;;;5005768;28;20179;-69
2023/12/14 08:03:57;;;;;;;8.70;4.33;;;;;;;;;;4991724;28;20202;-68
2023/12/14 08:06:22;;;;;;;8.20;5.27;;;;;;;;;;4985384;28;20214;-68
2023/12/14 08:08:48;;;;;;;8.93;4.80;;;;;;;;;;4989135;28;20210;-69
2023/12/14 08:11:13;;;;;;;10.00;4.87;;;;;;;;;;4992600;28;20179;-69
2023/12/14 08:13:38;;;;;;;6.57;4.40;;;;;;;;;;4986239;28;20258;-73
2023/12/14 08:16:04;;;;;;;9.03;5.07;;;;;;;;;;4987645;28;20258;-69
2023/12/14 08:18:29;;;;;;;8.40;5.10;;;;;;;;;;4993354;28;20195;-69
2023/12/14 08:20:55;;;;;;;9.07;5.30;;;;;;;;;;4992415;28;20180;-70
2023/12/14 08:23:20;;;;;;;8.80;5.57;;;;;;;;;;4993189;28;20690;-68
2023/12/14 08:25:45;;;;;;;10.17;6.27;;;;;;;;;;4990664;28;20183;-70
2023/12/14 08:28:10;;;;;;;9.07;5.50;;;;;;;;;;4992868;28;20180;-69
2023/12/14 08:30:37;;;;;;;7.53;5.07;;;;;;;;;;4991046;28;20601;-69
2023/12/14 08:33:03;;;;;;;6.80;4.77;;;;;;;;;;4982762;28;20195;-69
2023/12/14 08:35:28;;;;;;;8.60;5.07;;;;;;;;;;4987353;28;20182;-69
2023/12/14 08:37:53;;;;;;;8.00;5.37;;;;;;;;;;4991941;28;20211;-69
2023/12/14 08:40:18;;;;;;;7.53;5.27;;;;;;;;;;4991244;28;20179;-70
2023/12/14 08:42:43;;;;;;;6.50;4.47;;;;;;;;;;4991508;28;20561;-69
2023/12/14 08:45:11;;;;;;;8.50;5.03;;;;;;;;;;4992529;28;20259;-70
2023/12/14 08:47:36;;;;;;;8.80;4.87;;;;;;;;;;4991835;28;20659;-70
2023/12/14 08:50:01;;;;;;;9.00;5.33;;;;;;;;;;4988104;28;20424;-69
2023/12/14 08:52:27;;;;;;;6.10;4.77;;;;;;;;;;4987890;28;20753;-70
2023/12/14 08:54:52;;;;;;;12.60;5.63;;;;;;;;;;4990547;28;20563;-69
2023/12/14 08:57:17;;;;;;;10.40;5.63;;;;;;;;;;4992367;28;20199;-70
2023/12/14 08:59:42;;;;;;;6.20;4.80;;;;;;;;;;4990638;28;20211;-70
2023/12/14 09:02:07;;;;;;;5.63;4.20;;;;;;;;;;4991210;28;20200;-70
2023/12/14 09:04:35;;;;;;;7.10;4.90;;;;;;;;;;4990549;28;20551;-70
2023/12/14 09:07:00;;;;;;;7.23;5.33;;;;;;;;;;4990782;28;20190;-69
2023/12/14 09:09:26;;;;;;;6.37;5.23;;;;;;;;;;4978169;28;20192;-70
2023/12/14 09:11:51;;;;;;;7.87;5.13;;;;;;;;;;4969757;28;21797;-68
2023/12/14 09:14:16;;;;;;;6.57;4.90;;;;;;;;;;4970888;28;20602;-69
2023/12/14 09:16:41;;;;;;;8.10;5.43;;;;;;;;;;4970111;28;20187;-71
2023/12/14 09:19:06;;;;;;;7.60;5.13;;;;;;;;;;4972185;28;20223;-69
2023/12/14 09:21:32;;;;;;;7.90;4.83;;;;;;;;;;4971049;28;20184;-69
2023/12/14 09:23:57;;;;;;;8.33;4.87;;;;;;;;;;4970293;28;20249;-69
2023/12/14 09:26:22;;;;;;;7.60;4.80;;;;;;;;;;4972415;28;20775;-69
2023/12/14 09:28:47;;;;;;;9.57;5.03;;;;;;;;;;4969708;28;20186;-69
2023/12/14 09:31:12;;;;;;;6.13;4.53;;;;;;;;;;4972174;28;20194;-71
2023/12/14 09:33:38;;;;;;;5.83;4.30;;;;;;;;;;4973348;28;20206;-69
2023/12/14 09:36:03;;;;;;;8.17;5.27;;;;;;;;;;4971709;28;20270;-70
2023/12/14 09:38:28;;;;;;;6.47;4.63;;;;;;;;;;4972003;28;20665;-71
2023/12/14 09:40:54;;;;;;;6.17;4.57;;;;;;;;;;4975777;28;20179;-70
2023/12/14 09:43:20;;;;;;;7.60;4.57;;;;;;;;;;4971397;28;20261;-71
2023/12/14 09:45:46;;;;;;;5.30;3.92;;;;;;;;;;4973921;28;20183;-69
2023/12/14 09:48:12;;;;;;;9.82;4.05;;;;;;;;;;4971501;28;20191;-69
2023/12/14 09:50:38;;;;;;;5.97;4.30;;;;;;;;;;4971079;28;20577;-69
2023/12/14 09:53:04;;;;;;;5.30;4.00;;;;;;;;;;4970286;28;20222;-70
2023/12/14 09:55:31;;;;;;;6.57;4.00;;;;;;;;;;4973006;28;20239;-69
2023/12/14 09:57:56;;;;;;;4.28;3.35;;;;;;;;;;4982805;28;20211;-69
2023/12/14 10:00:34;;;;;;;4.38;3.58;;;;;;;;;;4991848;28;20310;-69
2023/12/14 10:03:18;;;;;;;4.03;3.10;;;;;;;;;;4989815;28;20736;-69
2023/12/14 10:05:43;;;;;;;5.30;3.80;;;;;;;;;;4978550;28;20194;-70
2023/12/14 10:08:08;;;;;;;3.50;3.20;;;;;;;;;;4971275;28;20255;-70
2023/12/14 10:10:34;;;;;;;4.03;3.13;;;;;;;;;;4974969;28;20298;-69
2023/12/14 10:12:59;;;;;;;4.07;3.23;;;;;;;;;;4971890;28;20200;-69
2023/12/14 10:15:26;;;;;;;8.10;3.47;;;;;;;;;;4970845;28;20234;-72
2023/12/14 10:17:53;;;;;;;5.33;3.63;;;;;;;;;;4969926;28;20218;-70
2023/12/14 10:20:22;;;;;;;5.33;3.33;;;;;;;;;;4970731;28;20627;-70
2023/12/14 10:22:48;;;;;;;5.80;3.40;;;;;;;;;;4972568;28;20203;-69
2023/12/14 10:25:14;;;;;;;6.37;3.70;;;;;;;;;;4973598;28;20186;-73
2023/12/14 10:27:39;;;;;;;5.17;3.23;;;;;;;;;;4969091;28;20180;-68
2023/12/14 10:30:05;;;;;;;4.17;3.10;;;;;;;;;;4972715;28;20184;-69
2023/12/14 10:32:31;;;;;;;5.03;3.63;;;;;;;;;;4972169;28;20223;-70
2023/12/14 10:34:56;;;;;;;5.63;3.00;;;;;;;;;;4973359;28;20179;-69
2023/12/14 10:37:21;;;;;;;5.67;3.60;;;;;;;;;;4971426;28;20659;-69
2023/12/14 10:39:48;;;;;;;4.40;3.50;;;;;;;;;;4985473;28;20219;-69
2023/12/14 10:42:15;;;;;;;5.77;3.70;;;;;;;;;;4972675;28;20239;-70
2023/12/14 10:44:40;;;;;;;6.00;3.60;;;;;;;;;;4982259;28;20199;-69
2023/12/14 10:47:06;;;;;;;3.37;3.07;;;;;;;;;;4990610;28;20172;-68
2023/12/14 10:49:31;;;;;;;5.87;3.47;;;;;;;;;;4992579;28;20249;-69
2023/12/14 10:51:57;;;;;;;4.10;3.33;;;;;;;;;;4994371;28;20222;-70
2023/12/14 10:54:23;;;;;;;4.15;3.38;;;;;;;;;;4994382;28;20233;-69
2023/12/14 10:56:48;;;;;;;6.18;3.22;;;;;;;;;;4994528;28;20187;-70
2023/12/14 10:59:17;;;;;;;6.38;4.50;;;;;;;;;;4983229;28;20258;-70
2023/12/14 11:01:42;;;;;;;4.75;3.10;;;;;;;;;;4973913;28;20274;-69
2023/12/14 11:04:13;;;;;;;4.50;3.55;;;;;;;;;;4972421;28;20271;-70
2023/12/14 11:06:38;;;;;;;4.45;3.53;;;;;;;;;;4973327;28;20183;-70
2023/12/14 11:09:08;;;;;;;4.25;3.70;;;;;;;;;;4973999;28;20241;-70
2023/12/14 11:11:47;;;;;;;7.72;4.03;;;;;;;;;;4973398;28;20271;-71
2023/12/14 11:14:13;;;;;;;4.10;3.47;;;;;;;;;;4971679;28;20530;-70
2023/12/14 11:16:46;;;;;;;4.63;3.30;;;;;;;;;;4973479;28;20211;-68
2023/12/14 11:19:20;;;;;;;3.80;3.22;;;;;;;;;;4973299;28;20888;-69
2023/12/14 11:21:46;;;;;;;4.78;3.25;;;;;;;;;;4973685;28;20175;-72
2023/12/14 11:24:12;;;;;;;5.35;3.97;;;;;;;;;;4973005;28;20662;-69
2023/12/14 11:26:37;;;;;;;5.93;3.92;;;;;;;;;;4975299;28;20192;-71
2023/12/14 11:29:03;;;;;;;4.38;2.90;;;;;;;;;;4973384;28;20258;-70
2023/12/14 11:31:29;;;;;;;6.53;3.88;;;;;;;;;;4973435;28;20187;-70
2023/12/14 11:33:55;;;;;;;3.90;3.28;;;;;;;;;;4971920;28;20200;-70
2023/12/14 11:36:21;;;;;;;4.53;3.25;;;;;;;;;;4972355;28;20270;-69
2023/12/14 11:38:47;;;;;;;4.47;3.63;;;;;;;;;;4971857;28;20212;-69
2023/12/14 11:41:13;;;;;;;4.85;3.30;;;;;;;;;;4979170;28;20180;-69
2023/12/14 11:43:39;;;;;;;5.13;3.88;;;;;;;;;;4972200;28;20301;-69
2023/12/14 11:46:04;;;;;;;6.07;4.30;;;;;;;;;;4973010;28;20675;-69
2023/12/14 11:48:29;;;;;;;4.10;3.50;;;;;;;;;;4971486;28;20180;-71
2023/12/14 11:50:55;;;;;;;6.72;4.50;;;;;;;;;;4972492;28;20682;-69
2023/12/14 11:53:20;;;;;;;7.07;4.88;;;;;;;;;;4972112;28;20679;-70
2023/12/14 11:55:45;;;;;;;6.47;4.40;;;;;;;;;;4974753;28;20194;-70
2023/12/14 11:58:14;;;;;;;6.83;4.20;;;;;;;;;;4971688;28;20196;-70
2023/12/14 12:00:40;;;;;;;5.30;4.27;;;;;;;;;;4971760;28;20748;-72
2023/12/14 12:03:11;;;;;;;6.40;4.53;;;;;;;;;;4972780;28;20397;-69
2023/12/14 12:05:40;;;;;;;7.10;4.73;;;;;;;;;;4972220;28;20673;-71
2023/12/14 12:08:06;;;;;;;6.70;5.00;;;;;;;;;;4972577;28;20207;-71
2023/12/14 12:10:31;;;;;;;9.67;5.67;;;;;;;;;;4987131;28;20278;-70
2023/12/14 12:13:04;;;;;;;7.00;5.03;;;;;;;;;;4972344;28;20203;-71
2023/12/14 12:15:31;;;;;;;7.67;4.97;;;;;;;;;;4972986;28;20180;-70
2023/12/14 12:17:56;;;;;;;9.43;4.97;;;;;;;;;;4970604;28;20206;-69
2023/12/14 12:20:22;;;;;;;10.27;5.10;;;;;;;;;;4974131;28;20180;-68
2023/12/14 12:22:47;;;;;;;7.37;5.10;;;;;;;;;;4979397;28;20905;-71
2023/12/14 12:25:12;;;;;;;8.10;5.30;;;;;;;;;;4974100;28;20249;-69
2023/12/14 12:27:37;;;;;;;9.13;4.97;;;;;;;;;;4972164;28;20966;-70
2023/12/14 12:30:03;;;;;;;9.03;5.77;;;;;;;;;;4972492;28;20572;-70
2023/12/14 12:32:28;;;;;;;5.83;4.53;;;;;;;;;;4972601;28;20192;-70
2023/12/14 12:34:54;;;;;;;8.13;5.23;;;;;;;;;;4971625;28;20171;-71
2023/12/14 12:37:19;;;;;;;11.90;5.80;;;;;;;;;;4970971;28;20184;-70
2023/12/14 12:39:44;;;;;;;10.33;6.57;;;;;;;;;;4971330;28;20610;-71
2023/12/14 12:42:09;;;;;;;9.37;5.50;;;;;;;;;;4986785;22;20304;-63
2023/12/14 12:44:34;;;;;;;7.53;5.20;;;;;;;;;;4975226;28;20198;-66
2023/12/14 12:47:00;;;;;;;7.20;5.10;;;;;;;;;;4976425;28;20229;-66
2023/12/14 12:49:25;;;;;;;9.87;5.63;;;;;;;;;;4977423;28;20188;-66
2023/12/14 12:51:50;;;;;;;8.40;6.03;;;;;;;;;;4975159;28;20195;-66
2023/12/14 12:54:15;;;;;;;7.90;5.20;;;;;;;;;;4969180;28;20207;-67
2023/12/14 12:56:42;;;;;;;8.60;5.80;;;;;;;;;;4970556;28;20195;-65
2023/12/14 12:59:08;;;;;;;8.83;5.23;;;;;;;;;;4969979;28;20210;-65
2023/12/14 13:01:33;;;;;;;8.23;5.23;;;;;;;;;;4969266;28;20180;-65
2023/12/14 13:03:58;;;;;;;10.27;5.70;;;;;;;;;;4969587;28;20257;-65
2023/12/14 13:06:25;;;;;;;8.10;5.27;;;;;;;;;;4970131;28;20187;-66
2023/12/14 13:08:50;;;;;;;7.93;5.17;;;;;;;;;;4969002;28;20188;-66
2023/12/14 13:11:15;;;;;;;8.03;5.30;;;;;;;;;;4967818;28;20291;-65
2023/12/14 13:13:41;;;;;;;6.50;4.57;;;;;;;;;;4970387;28;20207;-67
2023/12/14 13:16:06;;;;;;;10.07;4.67;;;;;;;;;;4968648;28;21873;-66
2023/12/14 13:18:31;;;;;;;7.97;4.67;;;;;;;;;;4968913;28;20660;-65
2023/12/14 13:20:57;;;;;;;8.03;5.33;;;;;;;;;;4969432;28;20199;-66
2023/12/14 13:23:22;;;;;;;10.73;5.90;;;;;;;;;;4968697;28;20199;-66
2023/12/14 13:25:47;;;;;;;9.00;5.23;;;;;;;;;;4969737;28;20191;-66
2023/12/14 13:28:13;;;;;;;10.13;5.47;;;;;;;;;;4972020;28;20659;-65
2023/12/14 13:30:38;;;;;;;9.37;5.13;;;;;;;;;;4970758;28;20889;-66
2023/12/14 13:33:04;;;;;;;9.43;5.60;;;;;;;;;;4969524;28;20204;-65
2023/12/14 13:35:29;;;;;;;10.17;4.80;;;;;;;;;;4968610;28;20237;-66
2023/12/14 13:37:54;;;;;;;7.67;5.00;;;;;;;;;;4968753;28;20191;-66
2023/12/14 13:40:20;;;;;;;7.73;5.30;;;;;;;;;;4974907;28;20176;-66
2023/12/14 13:42:45;;;;;;;6.30;4.87;;;;;;;;;;4970969;28;20305;-66
2023/12/14 13:45:10;;;;;;;8.47;5.30;;;;;;;;;;4969447;28;20187;-66
2023/12/14 13:47:35;;;;;;;8.63;5.47;;;;;;;;;;4971578;28;20541;-64
2023/12/14 13:50:03;;;;;;;8.10;5.57;;;;;;;;;;4968761;28;20274;-66
2023/12/14 13:52:28;;;;;;;9.37;6.23;;;;;;;;;;4969573;28;20208;-66
2023/12/14 13:54:55;;;;;;;9.23;5.80;;;;;;;;;;4971955;28;20234;-66
2023/12/14 13:57:21;;;;;;;9.57;5.63;;;;;;;;;;4968004;28;20245;-66
2023/12/14 13:59:47;;;;;;;9.07;5.57;;;;;;;;;;4968844;28;20211;-67
2023/12/14 14:02:13;;;;;;;9.73;5.40;;;;;;;;;;4969175;28;20185;-66
2023/12/14 14:04:38;;;;;;;8.67;5.83;;;;;;;;;;4972986;28;20722;-65
2023/12/14 14:07:03;;;;;;;6.70;4.70;;;;;;;;;;4968185;28;20248;-66
2023/12/14 14:09:28;;;;;;;9.17;5.53;;;;;;;;;;4968004;28;20395;-65
2023/12/14 14:11:54;;;;;;;8.57;5.17;;;;;;;;;;4969521;28;20189;-67
2023/12/14 14:14:19;;;;;;;11.40;5.13;;;;;;;;;;4968718;28;20892;-66
2023/12/14 14:16:44;;;;;;;8.57;5.30;;;;;;;;;;4969438;28;21806;-66
2023/12/14 14:19:09;;;;;;;8.53;5.37;;;;;;;;;;4968718;28;21778;-67
2023/12/14 14:21:35;;;;;;;12.53;5.67;;;;;;;;;;4966963;28;21340;-67
2023/12/14 14:24:00;;;;;;;10.43;5.70;;;;;;;;;;4971209;28;20199;-67
2023/12/14 14:26:25;;;;;;;10.10;5.87;;;;;;;;;;4973209;28;20191;-65
2023/12/14 14:28:50;;;;;;;13.30;5.67;;;;;;;;;;4974154;28;20184;-66